ENAL/AES METAR and TAF weather

Enter ICAO airport designator
Station Type Date Time Source
ENAL METAR 2019/10/16 20:20 UTC NOAA

ENAL 162020Z 12002KT 9999 FEW048 BKN066 10/08 Q1004


Station Type Date Time Source
ENAL Decoded METAR 2019/10/16 20:20 UTC NOAA

Alesund / Vigra, Norway (ENAL) 62-34N 006-07E 22M
Oct 16, 2019 - 04:20 PM EDT / 2019.10.16 2020 UTC
Wind: from the ESE (120 degrees) at 2 MPH (2 KT):0
Visibility: greater than 7 mile(s):0
Sky conditions: mostly cloudy
Temperature: 50 F (10 C)
Dew Point: 46 F (8 C)
Relative Humidity: 87%
Pressure (altimeter): 29.65 in. Hg (1004 hPa)
ob: ENAL 162020Z 12002KT 9999 FEW048 BKN066 10/08 Q1004
cycle: 20

Station Type Date Time Source
ENAL TAF UTC NOAA

Error!

Example: see airport list